Time;durP1;ratioP1;P1;durP2;ratioP2;P2;SDS_P1;SDS_P2;PMS_P1;PMS_P2;Temp;Humidity;BMP_temperature;BMP_pressure;BME280_temperature;BME280_humidity;BME280_pressure;Samples;Min_cycle;Max_cycle;Signal;HPM_P1;HPM_P2
2023/10/13 00:00:26;;;;;;;;;;;17.40;92.40;;;;;;4747257;30;20049;-78
2023/10/13 00:02:53;;;;;;;2.88;2.00;;;17.40;92.40;;;;;;4733023;30;19910;-79
2023/10/13 00:05:19;;;;;;;4.28;2.20;;;17.40;92.40;;;;;;4732058;30;20568;-79
2023/10/13 00:07:45;;;;;;;2.63;1.95;;;17.40;92.40;;;;;;4717452;30;20052;-79
2023/10/13 00:10:11;;;;;;;3.95;2.45;;;17.40;92.40;;;;;;4745963;30;20129;-80
2023/10/13 00:12:38;;;;;;;4.68;2.63;;;17.40;92.40;;;;;;4720261;30;20052;-79
2023/10/13 00:15:13;;;;;;;6.20;2.50;;;17.40;92.40;;;;;;4720213;30;20044;-81
2023/10/13 00:17:39;;;;;;;3.72;2.30;;;17.40;92.40;;;;;;4707472;30;20063;-79
2023/10/13 00:20:11;;;;;;;3.33;1.92;;;17.40;92.50;;;;;;4735094;30;20493;-80
2023/10/13 00:22:40;;;;;;;3.28;2.30;;;17.40;92.40;;;;;;4749634;30;20064;-79
2023/10/13 00:25:06;;;;;;;4.20;2.15;;;17.40;92.40;;;;;;4735828;30;20126;-78
2023/10/13 00:27:36;;;;;;;3.47;2.40;;;17.40;92.40;;;;;;4719943;30;20084;-79
2023/10/13 00:30:38;;;;;;;3.03;1.90;;;17.40;92.50;;;;;;4706611;30;20122;-78
2023/10/13 00:32:54;;;;;;;3.28;2.00;;;17.40;92.50;;;;;;4735646;30;20137;-78
2023/10/13 00:35:36;;;;;;;3.53;1.83;;;17.40;92.50;;;;;;4720623;30;20044;-79
2023/10/13 00:38:04;;;;;;;2.97;2.08;;;17.40;92.50;;;;;;4735551;30;20515;-78
2023/10/13 00:43:32;;;;;;;4.90;2.00;;;17.40;92.50;;;;;;4735512;30;20075;-78
2023/10/13 00:46:06;;;;;;;2.33;1.80;;;17.40;92.50;;;;;;4734718;30;20076;-78
2023/10/13 00:48:52;;;;;;;4.07;2.33;;;17.40;92.50;;;;;;4706924;30;20044;-78
2023/10/13 00:51:32;;;;;;;3.42;1.92;;;17.40;92.50;;;;;;4721951;30;20385;-80
2023/10/13 00:53:59;;;;;;;3.23;2.20;;;17.40;92.50;;;;;;4734637;30;20132;-79
2023/10/13 00:56:27;;;;;;;2.70;1.85;;;17.40;92.40;;;;;;4734520;30;20563;-78
2023/10/13 00:58:57;;;;;;;2.90;2.08;;;17.40;92.40;;;;;;4732624;30;20060;-78
2023/10/13 01:01:32;;;;;;;3.05;2.17;;;17.40;92.40;;;;;;4734440;30;20113;-78
2023/10/13 01:04:00;;;;;;;3.53;2.10;;;17.40;92.50;;;;;;4734218;30;20045;-78
2023/10/13 01:06:27;;;;;;;2.90;1.85;;;17.40;92.50;;;;;;4719651;30;20041;-79
2023/10/13 01:11:52;;;;;;;2.80;1.93;;;17.30;92.50;;;;;;4734156;30;20049;-78
2023/10/13 01:14:20;;;;;;;3.30;2.30;;;17.40;92.50;;;;;;4748352;30;20057;-78
2023/10/13 01:16:46;;;;;;;2.97;1.98;;;17.40;92.50;;;;;;4734002;30;20102;-79
2023/10/13 01:19:17;;;;;;;3.80;2.03;;;17.40;92.50;;;;;;4748359;30;20056;-78
2023/10/13 01:21:44;;;;;;;3.78;2.33;;;17.40;92.50;;;;;;4733977;30;20048;-79
2023/10/13 01:24:11;;;;;;;3.20;2.25;;;17.40;92.50;;;;;;4749048;30;20032;-78
2023/10/13 01:26:41;;;;;;;3.38;2.25;;;17.40;92.50;;;;;;4719058;30;20045;-78
2023/10/13 01:29:12;;;;;;;3.67;2.17;;;17.40;92.50;;;;;;4717869;30;20566;-78
2023/10/13 01:31:45;;;;;;;2.55;1.77;;;17.40;92.50;;;;;;4719797;30;20494;-78
2023/10/13 01:34:12;;;;;;;2.50;1.92;;;17.40;92.50;;;;;;4706765;30;20523;-79
2023/10/13 01:36:40;;;;;;;2.88;1.85;;;17.40;92.40;;;;;;4734678;30;20052;-80
2023/10/13 01:39:07;;;;;;;3.40;2.15;;;17.40;92.40;;;;;;4719517;30;20089;-78
2023/10/13 01:41:37;;;;;;;3.08;1.98;;;17.40;92.50;;;;;;4719653;30;20582;-79
2023/10/13 01:44:04;;;;;;;2.70;1.92;;;17.40;92.40;;;;;;4733485;30;20037;-79
2023/10/13 01:46:29;;;;;;;3.35;2.03;;;17.40;92.40;;;;;;4719539;30;20045;-78
2023/10/13 01:48:56;;;;;;;3.78;2.08;;;17.40;92.50;;;;;;4719154;30;20114;-79
2023/10/13 01:51:28;;;;;;;3.95;2.28;;;17.40;92.40;;;;;;4719238;30;20484;-79
2023/10/13 01:53:57;;;;;;;3.35;1.92;;;17.40;92.40;;;;;;4733737;30;20570;-79
2023/10/13 01:56:24;;;;;;;3.47;2.00;;;17.40;92.50;;;;;;4733520;30;20033;-78
2023/10/13 01:58:51;;;;;;;2.97;2.10;;;17.40;92.40;;;;;;4718940;30;20061;-78
2023/10/13 02:01:34;;;;;;;2.10;1.63;;;17.40;92.50;;;;;;4731494;30;20041;-78
2023/10/13 02:04:03;;;;;;;3.50;1.77;;;17.40;92.50;;;;;;4732266;30;20045;-79
2023/10/13 02:06:32;;;;;;;3.15;1.70;;;17.40;92.50;;;;;;4733178;30;20037;-79
2023/10/13 02:09:05;;;;;;;4.03;2.13;;;17.50;92.50;;;;;;4731392;30;20036;-79
2023/10/13 02:11:31;;;;;;;2.88;1.90;;;17.40;92.50;;;;;;4733133;30;20049;-80
2023/10/13 02:13:57;;;;;;;2.60;1.80;;;17.40;92.50;;;;;;4704342;30;20045;-79
2023/10/13 02:16:25;;;;;;;2.85;1.83;;;17.40;92.50;;;;;;4703848;30;20049;-79
2023/10/13 02:18:52;;;;;;;2.90;1.80;;;17.40;92.50;;;;;;4734643;30;20053;-78
2023/10/13 02:21:17;;;;;;;2.90;1.80;;;17.40;92.50;;;;;;4747690;30;20049;-80
2023/10/13 02:23:45;;;;;;;2.65;1.90;;;17.40;92.50;;;;;;4734243;30;20047;-78
2023/10/13 02:26:30;;;;;;;3.15;2.00;;;17.40;92.50;;;;;;4719260;30;20045;-79
2023/10/13 02:28:57;;;;;;;3.30;1.92;;;17.40;92.50;;;;;;4733025;30;20056;-78
2023/10/13 02:31:24;;;;;;;4.13;1.70;;;17.40;92.50;;;;;;4732825;30;20136;-78
2023/10/13 02:33:50;;;;;;;3.33;1.83;;;17.40;92.80;;;;;;4717867;30;20045;-78
2023/10/13 02:36:22;;;;;;;2.65;1.70;;;17.40;92.50;;;;;;4718391;30;20449;-78
2023/10/13 02:38:50;;;;;;;2.67;1.80;;;17.40;92.50;;;;;;4750320;30;20064;-78
2023/10/13 02:41:27;;;;;;;2.28;1.35;;;17.30;92.50;;;;;;4735809;30;20400;-78
2023/10/13 02:43:56;;;;;;;2.80;1.40;;;17.30;92.50;;;;;;4750490;30;20381;-78
2023/10/13 02:46:23;;;;;;;2.88;1.63;;;17.30;92.50;;;;;;4735425;30;20571;-78
2023/10/13 02:48:53;;;;;;;2.72;1.50;;;17.30;92.50;;;;;;4751406;30;20100;-79
2023/10/13 02:51:25;;;;;;;2.75;1.30;;;17.30;92.50;;;;;;4735859;30;20044;-78
2023/10/13 02:53:52;;;;;;;2.55;1.58;;;17.30;92.50;;;;;;4751830;30;20044;-78
2023/10/13 02:56:22;;;;;;;3.30;1.50;;;17.30;92.60;;;;;;4735355;30;20048;-78
2023/10/13 02:58:56;;;;;;;1.90;1.30;;;17.30;92.60;;;;;;4735457;30;20500;-78
2023/10/13 03:01:28;;;;;;;2.13;1.50;;;17.30;92.60;;;;;;4726493;30;20129;-78
2023/10/13 03:03:55;;;;;;;3.08;1.23;;;17.30;92.60;;;;;;4735327;30;20037;-79
2023/10/13 03:06:24;;;;;;;3.42;1.48;;;17.30;92.60;;;;;;4718330;30;20045;-79
2023/10/13 03:08:51;;;;;;;2.00;1.42;;;17.30;92.60;;;;;;4704262;30;20056;-79
2023/10/13 03:11:25;;;;;;;1.90;1.38;;;17.20;92.60;;;;;;4718134;30;20477;-79
2023/10/13 03:13:52;;;;;;;2.05;1.42;;;17.30;92.60;;;;;;4747406;30;20048;-79
2023/10/13 03:16:19;;;;;;;3.10;1.20;;;17.20;92.60;;;;;;4718066;30;20913;-80
2023/10/13 03:18:55;;;;;;;3.45;1.50;;;17.30;92.60;;;;;;4718195;30;20151;-79
2023/10/13 03:21:29;;;;;;;1.60;1.20;;;17.20;92.60;;;;;;4719008;30;20401;-79
2023/10/13 03:24:03;;;;;;;1.90;1.42;;;17.20;92.60;;;;;;4705153;30;20060;-79
2023/10/13 03:26:34;;;;;;;1.70;1.10;;;17.20;92.60;;;;;;4718320;30;20099;-80
2023/10/13 03:29:03;;;;;;;1.90;1.30;;;17.20;92.60;;;;;;4746799;30;20052;-79
2023/10/13 03:31:29;;;;;;;1.35;1.00;;;17.20;92.60;;;;;;4746690;30;20072;-79
2023/10/13 03:34:00;;;;;;;1.58;1.20;;;17.20;92.60;;;;;;4732324;30;20052;-79
2023/10/13 03:36:55;;;;;;;1.73;1.20;;;17.30;92.60;;;;;;4704709;30;20132;-80
2023/10/13 03:39:13;;;;;;;2.28;1.05;;;17.20;92.60;;;;;;4732256;30;20091;-80
2023/10/13 03:41:39;;;;;;;1.85;1.30;;;17.30;92.60;;;;;;4717804;30;20427;-79
2023/10/13 03:44:14;;;;;;;1.38;1.15;;;17.20;92.60;;;;;;4703022;30;20507;-79
2023/10/13 03:46:41;;;;;;;2.22;1.60;;;17.20;92.60;;;;;;4745715;30;20102;-80
2023/10/13 03:49:12;;;;;;;3.53;1.77;;;17.20;92.60;;;;;;4703212;30;20041;-80
2023/10/13 03:51:39;;;;;;;2.10;1.48;;;17.20;92.60;;;;;;4718228;30;20041;-79
2023/10/13 03:54:08;;;;;;;2.67;1.85;;;17.20;92.60;;;;;;4732109;30;20064;-80
2023/10/13 03:56:38;;;;;;;3.33;1.85;;;17.20;92.60;;;;;;4717750;30;20047;-81
2023/10/13 03:59:06;;;;;;;3.63;1.77;;;17.20;92.60;;;;;;4703632;30;20528;-81
2023/10/13 04:04:53;;;;;;;2.92;1.75;;;17.20;92.60;;;;;;4719871;30;20466;-82
2023/10/13 04:07:14;;;;;;;4.35;1.65;;;17.20;92.60;;;;;;4720235;30;20048;-82
2023/10/13 04:10:10;;;;;;;3.30;1.77;;;17.20;92.70;;;;;;4732529;30;20040;-81
2023/10/13 04:17:44;;;;;;;2.42;1.73;;;17.20;92.70;;;;;;4732680;30;20060;-82
2023/10/13 04:20:19;;;;;;;3.10;1.60;;;17.20;92.70;;;;;;4703703;30;20144;-80
2023/10/13 04:23:17;;;;;;;2.67;1.60;;;17.10;92.70;;;;;;4718782;30;20485;-80
2023/10/13 04:28:34;;;;;;;2.08;1.60;;;17.20;92.70;;;;;;4731903;30;20059;-80
2023/10/13 04:31:06;;;;;;;3.70;1.73;;;17.10;92.70;;;;;;4732060;30;20128;-80
2023/10/13 04:33:44;;;;;;;2.90;1.65;;;17.20;92.70;;;;;;4718619;30;20489;-80
2023/10/13 04:36:16;;;;;;;1.75;1.50;;;17.20;92.70;;;;;;4731895;30;20045;-80
2023/10/13 04:41:36;;;;;;;2.65;1.67;;;17.20;92.70;;;;;;4731988;30;20045;-80
2023/10/13 04:44:23;;;;;;;3.70;1.92;;;17.10;92.70;;;;;;4704366;30;20091;-81
2023/10/13 04:47:07;;;;;;;4.78;2.05;;;17.20;92.70;;;;;;4731922;30;20076;-82
2023/10/13 04:55:09;;;;;;;3.63;2.17;;;17.20;92.70;;;;;;4732595;30;20057;-82
2023/10/13 04:57:46;;;;;;;3.17;2.25;;;17.20;92.70;;;;;;4722805;30;20813;-82
2023/10/13 05:03:30;;;;;;;4.30;2.63;;;17.30;92.70;;;;;;4741411;30;20100;-81
2023/10/13 05:05:45;;;;;;;4.85;2.85;;;17.30;92.70;;;;;;4735443;30;20048;-82
2023/10/13 05:48:13;;;;;;;3.25;2.10;;;17.90;92.60;;;;;;4721359;30;20063;-82
2023/10/13 06:30:56;;;;;;;1.98;1.38;;;18.10;92.90;;;;;;4734043;30;20279;-80
2023/10/13 06:33:28;;;;;;;1.45;1.25;;;18.00;92.90;;;;;;4718787;30;20040;-81
2023/10/13 06:35:56;;;;;;;1.92;1.30;;;18.10;92.90;;;;;;4734125;30;20045;-82
2023/10/13 06:39:25;;;;;;;2.20;1.27;;;18.10;92.90;;;;;;4718202;30;20037;-82
2023/10/13 06:41:53;;;;;;;1.38;1.13;;;18.00;92.90;;;;;;4746061;30;20508;-85
2023/10/13 06:44:22;;;;;;;2.38;1.50;;;18.00;92.90;;;;;;4719951;30;20059;-82
2023/10/13 06:46:56;;;;;;;1.83;1.35;;;18.10;92.90;;;;;;4720059;30;20147;-84
2023/10/13 06:49:45;;;;;;;2.70;1.30;;;18.10;92.90;;;;;;4731550;30;20059;-83
2023/10/13 06:56:52;;;;;;;1.70;1.15;;;18.10;92.90;;;;;;4610533;31;20419;-83
2023/10/13 07:00:41;;;;;;;2.33;1.30;;;18.20;92.80;;;;;;4578314;31;20064;-83
2023/10/13 07:03:32;;;;;;;1.35;1.20;;;18.20;92.80;;;;;;4537427;31;20045;-82
2023/10/13 07:06:17;;;;;;;1.33;1.20;;;18.20;92.80;;;;;;4548170;31;20057;-82
2023/10/13 07:08:49;;;;;;;2.08;1.38;;;18.20;92.80;;;;;;4529516;31;20069;-80
2023/10/13 07:11:32;;;;;;;1.83;1.33;;;18.30;92.80;;;;;;4530413;31;20124;-81
2023/10/13 07:14:16;;;;;;;2.08;1.27;;;18.20;92.80;;;;;;4529763;31;20708;-82
2023/10/13 07:17:04;;;;;;;2.00;1.50;;;18.20;92.80;;;;;;4529826;31;20068;-81
2023/10/13 07:19:34;;;;;;;2.35;1.50;;;18.20;92.80;;;;;;4532088;31;20185;-80
2023/10/13 07:24:48;;;;;;;2.33;1.25;;;18.30;92.80;;;;;;4546103;31;20049;-80
2023/10/13 07:27:29;;;;;;;;;;;18.20;92.80;;;;;;4575076;31;20056;-80
2023/10/13 07:30:13;;;;;;;2.85;1.63;;;18.20;92.80;;;;;;4595699;31;19973;-81
2023/10/13 07:32:45;;;;;;;2.08;1.52;;;18.20;92.80;;;;;;4616693;30;20051;-80
2023/10/13 07:35:24;;;;;;;2.10;1.52;;;18.20;92.80;;;;;;4628711;30;20115;-80
2023/10/13 07:41:36;;;;;;;2.88;1.73;;;18.30;92.80;;;;;;4708576;30;20102;-81
2023/10/13 07:47:32;;;;;;;2.42;1.70;;;18.20;92.80;;;;;;4667649;30;20053;-80
2023/10/13 07:50:06;;;;;;;4.03;2.05;;;18.30;92.70;;;;;;4664570;30;20092;-80
2023/10/13 07:58:19;;;;;;;3.60;1.85;;;18.30;92.70;;;;;;4645504;30;20065;-78
2023/10/13 08:07:53;;;;;;;3.95;2.13;;;18.30;92.70;;;;;;4615405;31;20058;-82
2023/10/13 08:17:31;;;;;;;4.75;1.90;;;18.60;92.70;;;;;;4479912;32;20055;-82
2023/10/13 08:20:39;;;;;;;2.78;1.75;;;18.50;92.60;;;;;;4447864;32;20094;-83
2023/10/13 08:23:34;;;;;;;3.03;1.73;;;18.60;92.60;;;;;;4427332;32;20063;-82
2023/10/13 08:28:56;;;;;;;3.50;2.20;;;18.50;92.50;;;;;;4445619;32;20095;-81
2023/10/13 08:31:29;;;;;;;5.10;2.30;;;18.60;92.50;;;;;;4450140;32;20056;-80
2023/10/13 08:34:05;;;;;;;5.28;2.15;;;18.70;92.50;;;;;;4454865;32;20087;-78
2023/10/13 08:36:32;;;;;;;4.47;2.33;;;18.60;92.40;;;;;;4467790;32;20048;-79
2023/10/13 08:39:12;;;;;;;2.40;1.80;;;18.80;92.40;;;;;;4440114;32;20048;-79
2023/10/13 08:41:53;;;;;;;4.68;2.15;;;18.90;92.40;;;;;;4453027;32;20052;-80
2023/10/13 08:44:52;;;;;;;6.00;2.38;;;18.90;92.30;;;;;;4461594;32;20227;-81
2023/10/13 08:47:24;;;;;;;3.45;1.92;;;18.90;92.20;;;;;;4451590;32;20410;-80
2023/10/13 08:49:52;;;;;;;3.28;2.00;;;19.00;92.20;;;;;;4462918;31;20054;-80
2023/10/13 08:55:35;;;;;;;3.75;1.90;;;19.10;92.20;;;;;;4697118;30;20049;-79
2023/10/13 08:58:02;;;;;;;3.92;1.90;;;19.20;92.10;;;;;;4684309;30;20565;-81
2023/10/13 09:00:55;;;;;;;3.42;1.75;;;19.20;92.10;;;;;;4679568;30;20149;-79
2023/10/13 09:09:26;;;;;;;4.30;2.00;;;19.30;92.30;;;;;;4681138;30;20180;-80
2023/10/13 09:12:07;;;;;;;3.60;1.98;;;19.40;92.00;;;;;;4630064;30;20141;-80
2023/10/13 09:14:35;;;;;;;;;;;19.40;91.90;;;;;;4630957;30;20066;-81
2023/10/13 09:17:34;;;;;;;2.88;1.80;;;19.50;91.90;;;;;;4631492;30;19988;-80
2023/10/13 09:20:23;;;;;;;3.75;1.85;;;19.50;91.80;;;;;;4630159;30;20134;-79
2023/10/13 09:25:38;;;;;;;4.88;2.05;;;19.60;91.70;;;;;;4625000;30;20115;-80
2023/10/13 09:28:15;;;;;;;3.20;1.90;;;19.70;91.60;;;;;;4617765;31;20055;-80
2023/10/13 09:30:52;;;;;;;4.43;2.15;;;19.70;91.60;;;;;;4602145;30;20062;-80
2023/10/13 09:33:50;;;;;;;3.85;2.15;;;19.60;91.50;;;;;;4565513;31;20147;-79
2023/10/13 09:36:13;;;;;;;3.60;2.17;;;19.70;91.50;;;;;;4606523;30;20051;-78
2023/10/13 09:38:40;;;;;;;5.38;2.40;;;19.70;91.50;;;;;;4629784;30;20058;-79
2023/10/13 09:43:52;;;;;;;5.72;2.33;;;19.70;91.40;;;;;;4628336;30;20401;-80
2023/10/13 09:46:28;;;;;;;3.92;2.35;;;19.70;91.40;;;;;;4614445;30;20043;-81
2023/10/13 09:49:08;;;;;;;3.40;1.90;;;19.70;91.30;;;;;;4614467;31;20051;-81
2023/10/13 09:51:48;;;;;;;4.03;2.05;;;19.90;91.30;;;;;;4592282;31;20169;-81
2023/10/13 09:54:30;;;;;;;4.75;2.35;;;19.80;91.30;;;;;;4581009;31;20051;-81
2023/10/13 09:57:09;;;;;;;2.75;2.05;;;19.80;91.20;;;;;;4608702;30;20062;-80
2023/10/13 09:59:52;;;;;;;4.90;2.30;;;19.80;91.20;;;;;;4611763;30;20627;-83
2023/10/13 10:13:34;;;;;;;5.95;2.30;;;20.10;90.80;;;;;;4599638;31;20063;-81
2023/10/13 10:16:38;;;;;;;5.40;2.30;;;20.10;90.70;;;;;;4551135;31;20053;-81
2023/10/13 10:19:18;;;;;;;4.22;2.35;;;20.10;90.60;;;;;;4549070;31;20060;-80
2023/10/13 10:22:21;;;;;;;4.30;2.42;;;20.20;90.60;;;;;;4569099;31;20140;-81
2023/10/13 10:29:22;;;;;;;5.40;2.50;;;20.20;90.50;;;;;;4549243;31;20045;-83
2023/10/13 10:32:06;;;;;;;3.55;2.25;;;20.20;90.40;;;;;;4553737;31;20064;-81
2023/10/13 10:39:00;;;;;;;5.57;2.17;;;20.20;90.40;;;;;;4461309;32;20056;-82
2023/10/13 10:41:39;;;;;;;5.35;2.45;;;20.20;90.30;;;;;;4466375;31;20063;-81
2023/10/13 10:45:08;;;;;;;4.43;2.00;;;20.20;90.30;;;;;;4504352;31;20482;-83
2023/10/13 10:51:44;;;;;;;6.63;2.15;;;20.20;90.20;;;;;;4455574;32;20091;-81
2023/10/13 10:54:30;;;;;;;5.13;1.88;;;20.30;90.20;;;;;;4423771;32;20076;-81
2023/10/13 10:57:11;;;;;;;3.60;1.95;;;20.30;90.10;;;;;;4395200;32;20511;-80
2023/10/13 10:59:38;;;;;;;4.55;2.35;;;20.40;90.10;;;;;;4404169;32;20061;-79
2023/10/13 11:02:07;;;;;;;4.05;2.00;;;20.40;90.10;;;;;;4397269;32;20058;-79
2023/10/13 11:04:33;;;;;;;5.10;2.30;;;20.40;90.00;;;;;;4408645;32;20058;-80
2023/10/13 11:07:00;;;;;;;3.95;2.40;;;20.40;90.00;;;;;;4410642;32;20066;-80
2023/10/13 11:09:31;;;;;;;5.57;2.40;;;20.40;90.00;;;;;;4419141;32;20066;-80
2023/10/13 11:12:18;;;;;;;4.35;2.30;;;20.50;89.70;;;;;;4419437;32;20167;-80
2023/10/13 11:21:16;;;;;;;4.00;2.22;;;20.60;89.20;;;;;;4471475;31;20067;-80
2023/10/13 11:23:42;;;;;;;4.65;2.38;;;20.70;89.10;;;;;;4504184;31;20042;-79
2023/10/13 11:26:07;;;;;;;4.00;2.35;;;20.80;89.00;;;;;;4568646;31;20528;-79
2023/10/13 11:28:37;;;;;;;4.53;2.67;;;20.70;88.80;;;;;;4653086;30;20429;-79
2023/10/13 11:31:24;;;;;;;6.95;2.50;;;20.70;88.70;;;;;;4699400;30;20057;-81
2023/10/13 11:33:50;;;;;;;5.72;2.95;;;20.70;88.60;;;;;;4652933;30;20576;-77
2023/10/13 11:36:21;;;;;;;8.02;3.22;;;20.80;88.40;;;;;;4649739;30;20062;-79
2023/10/13 11:38:49;;;;;;;6.22;3.30;;;21.00;88.10;;;;;;4635358;30;20066;-78
2023/10/13 11:41:19;;;;;;;8.15;3.47;;;21.00;87.50;;;;;;4651261;30;20455;-78
2023/10/13 11:43:52;;;;;;;4.53;2.75;;;21.10;87.30;;;;;;4624162;30;20095;-79
2023/10/13 11:49:33;;;;;;;6.55;3.08;;;21.00;87.00;;;;;;4660129;30;20065;-79
2023/10/13 11:54:46;;;;;;;7.28;3.15;;;21.00;86.80;;;;;;4672071;30;20065;-80
2023/10/13 11:57:17;;;;;;;6.10;3.00;;;21.00;86.70;;;;;;4652565;30;20049;-80
2023/10/13 11:59:57;;;;;;;6.63;3.20;;;21.10;86.50;;;;;;4654208;30;20082;-80
2023/10/13 12:05:16;;;;;;;5.55;2.50;;;21.10;87.00;;;;;;4682079;30;20144;-80
2023/10/13 12:07:51;;;;;;;5.75;2.75;;;21.10;86.40;;;;;;4716429;30;20048;-81
2023/10/13 12:10:33;;;;;;;5.47;2.83;;;21.00;86.20;;;;;;4697089;30;20096;-81
2023/10/13 12:13:05;;;;;;;5.03;2.70;;;21.10;86.10;;;;;;4681028;30;20050;-80
2023/10/13 12:15:48;;;;;;;4.70;2.90;;;21.30;85.90;;;;;;4684175;30;20092;-79
2023/10/13 12:18:14;;;;;;;6.38;2.80;;;21.30;85.60;;;;;;4666367;30;20574;-78
2023/10/13 12:20:45;;;;;;;5.93;2.83;;;21.40;85.30;;;;;;4672699;30;20054;-79
2023/10/13 12:23:16;;;;;;;4.63;2.90;;;21.30;85.10;;;;;;4656860;30;20119;-78
2023/10/13 12:25:59;;;;;;;5.60;3.08;;;21.30;85.10;;;;;;4683083;30;20057;-79
2023/10/13 12:28:26;;;;;;;5.90;3.05;;;21.40;85.10;;;;;;4694495;30;20178;-78
2023/10/13 12:30:53;;;;;;;5.13;2.80;;;21.40;85.00;;;;;;4703508;30;20052;-78
2023/10/13 12:33:36;;;;;;;5.60;2.92;;;21.40;84.90;;;;;;4696913;30;20045;-78
2023/10/13 12:36:06;;;;;;;6.57;3.10;;;21.50;84.80;;;;;;4711118;30;20155;-79
2023/10/13 12:38:51;;;;;;;4.85;3.15;;;21.50;84.70;;;;;;4700278;30;20049;-78
2023/10/13 12:49:38;;;;;;;6.50;3.40;;;21.60;84.10;;;;;;4735959;30;20051;-75
2023/10/13 12:52:02;;;;;;;4.93;3.10;;;21.60;83.90;;;;;;4733392;30;20480;-75
2023/10/13 12:54:35;;;;;;;6.60;3.03;;;21.70;83.90;;;;;;4722641;30;20049;-76
2023/10/13 12:57:01;;;;;;;5.30;3.10;;;21.60;83.80;;;;;;4705833;30;20049;-75
2023/10/13 12:59:27;;;;;;;6.63;3.00;;;21.60;83.80;;;;;;4733954;30;20052;-76
2023/10/13 13:01:56;;;;;;;6.07;2.90;;;21.70;84.00;;;;;;4716851;30;20491;-78
2023/10/13 13:04:31;;;;;;;3.80;2.28;;;21.70;84.00;;;;;;4720321;30;20496;-77
2023/10/13 13:06:57;;;;;;;5.88;3.00;;;21.60;83.90;;;;;;4750505;30;20044;-76
2023/10/13 13:09:25;;;;;;;5.25;2.53;;;21.60;83.80;;;;;;4723462;30;20047;-78
2023/10/13 13:11:57;;;;;;;6.35;3.00;;;21.60;83.70;;;;;;4753320;30;20041;-78
2023/10/13 13:14:31;;;;;;;4.80;2.80;;;21.60;83.60;;;;;;4721354;30;20135;-77
2023/10/13 13:17:04;;;;;;;6.95;2.83;;;21.70;83.60;;;;;;4737439;30;20099;-77
2023/10/13 13:19:35;;;;;;;5.15;3.10;;;21.70;83.50;;;;;;4712724;30;20056;-77
2023/10/13 13:22:03;;;;;;;3.58;2.35;;;21.70;83.40;;;;;;4741548;30;20056;-78
2023/10/13 13:24:30;;;;;;;6.78;2.60;;;21.70;83.30;;;;;;4752308;30;20041;-78
2023/10/13 13:27:02;;;;;;;4.10;2.40;;;21.70;83.30;;;;;;4738806;30;20076;-78
2023/10/13 13:29:29;;;;;;;4.68;2.50;;;21.70;83.40;;;;;;4722509;30;20053;-78
2023/10/13 13:31:55;;;;;;;5.47;2.17;;;21.60;83.40;;;;;;4739091;30;20064;-78
2023/10/13 13:34:21;;;;;;;4.80;2.40;;;21.70;83.50;;;;;;4741804;30;20052;-78
2023/10/13 13:36:52;;;;;;;5.88;2.20;;;21.50;83.40;;;;;;4742053;30;20497;-79
2023/10/13 13:39:28;;;;;;;6.05;2.13;;;21.60;83.50;;;;;;4725012;30;20048;-79
2023/10/13 13:41:56;;;;;;;4.10;2.08;;;21.50;83.50;;;;;;4721458;30;20052;-77
2023/10/13 13:44:28;;;;;;;3.95;2.33;;;21.60;83.60;;;;;;4735407;30;20044;-77
2023/10/13 13:46:56;;;;;;;5.10;2.40;;;21.60;83.30;;;;;;4720919;30;20444;-77
2023/10/13 13:49:29;;;;;;;4.40;2.50;;;21.50;83.20;;;;;;4721128;30;20063;-77
2023/10/13 13:52:04;;;;;;;4.88;2.30;;;21.60;83.20;;;;;;4707631;30;20044;-77
2023/10/13 13:54:30;;;;;;;3.70;2.22;;;21.60;83.10;;;;;;4733657;30;20047;-75
2023/10/13 13:56:57;;;;;;;5.35;2.30;;;21.50;83.70;;;;;;4719714;30;20033;-79
2023/10/13 13:59:23;;;;;;;4.15;2.13;;;21.60;83.20;;;;;;4707077;30;20056;-79
2023/10/13 14:01:52;;;;;;;5.45;2.58;;;21.50;83.10;;;;;;4735253;30;20056;-78
2023/10/13 14:04:19;;;;;;;4.35;2.10;;;21.60;83.20;;;;;;4725183;30;20036;-78
2023/10/13 14:06:45;;;;;;;5.25;2.45;;;21.50;83.20;;;;;;4752767;30;20040;-78
2023/10/13 14:12:25;;;;;;;4.05;2.30;;;21.50;83.20;;;;;;4725685;30;20104;-78
2023/10/13 14:14:47;;;;;;;4.50;2.20;;;21.40;83.10;;;;;;4737600;30;20060;-78
2023/10/13 14:17:13;;;;;;;3.40;2.13;;;21.50;83.10;;;;;;4751007;30;20053;-77
2023/10/13 14:19:40;;;;;;;3.30;1.92;;;21.50;83.00;;;;;;4737390;30;20112;-76
2023/10/13 14:22:06;;;;;;;3.92;2.10;;;21.50;82.90;;;;;;4709848;30;20060;-77
2023/10/13 14:24:36;;;;;;;7.25;2.03;;;21.50;82.90;;;;;;4722313;30;20040;-77
2023/10/13 14:27:19;;;;;;;3.63;1.88;;;21.40;82.80;;;;;;4720441;30;20075;-78
2023/10/13 14:29:52;;;;;;;3.83;1.88;;;21.40;82.90;;;;;;4720670;30;20045;-79
2023/10/13 14:32:24;;;;;;;5.40;2.00;;;21.30;83.10;;;;;;4706960;30;20041;-79
2023/10/13 14:35:00;;;;;;;4.80;2.00;;;21.30;83.20;;;;;;4687427;30;20045;-77
2023/10/13 14:37:28;;;;;;;4.20;2.30;;;21.20;83.20;;;;;;4688461;30;20560;-77
2023/10/13 14:40:00;;;;;;;7.15;2.17;;;21.20;83.30;;;;;;4680827;30;20075;-78
2023/10/13 14:42:27;;;;;;;3.65;2.00;;;21.20;83.30;;;;;;4671280;30;20132;-77
2023/10/13 14:44:56;;;;;;;4.93;2.20;;;21.20;83.30;;;;;;4671896;30;20076;-77
2023/10/13 14:47:24;;;;;;;2.63;1.77;;;21.10;83.30;;;;;;4683856;30;20046;-78
2023/10/13 14:49:54;;;;;;;3.42;1.85;;;21.10;83.40;;;;;;4684112;30;20056;-78
2023/10/13 14:52:22;;;;;;;4.37;1.90;;;21.10;83.70;;;;;;4701509;30;20120;-77
2023/10/13 14:54:50;;;;;;;3.65;1.70;;;20.90;83.70;;;;;;4683990;30;20299;-77
2023/10/13 14:57:16;;;;;;;3.85;1.63;;;20.90;83.90;;;;;;4702904;30;20056;-78
2023/10/13 14:59:44;;;;;;;2.25;1.50;;;20.90;84.00;;;;;;4718570;30;20494;-76
2023/10/13 15:02:10;;;;;;;3.03;1.80;;;20.90;84.10;;;;;;4718303;30;20072;-77
2023/10/13 15:04:35;;;;;;;3.28;1.65;;;20.80;84.10;;;;;;4721285;30;20493;-79
2023/10/13 15:07:01;;;;;;;4.18;1.70;;;20.80;84.10;;;;;;4737018;30;20056;-79
2023/10/13 15:09:28;;;;;;;3.00;1.70;;;20.80;84.10;;;;;;4729907;30;20049;-78
2023/10/13 15:11:54;;;;;;;3.97;1.83;;;20.70;84.10;;;;;;4739678;30;20515;-79
2023/10/13 15:14:20;;;;;;;3.72;1.73;;;20.70;84.10;;;;;;4740463;30;20053;-78
2023/10/13 15:16:46;;;;;;;2.15;1.50;;;20.70;84.10;;;;;;4724258;30;20060;-79
2023/10/13 15:19:12;;;;;;;4.53;1.73;;;20.80;84.10;;;;;;4728798;30;20056;-79
2023/10/13 15:21:40;;;;;;;3.50;2.10;;;20.80;84.00;;;;;;4725829;30;20052;-78
2023/10/13 15:24:14;;;;;;;3.00;1.70;;;20.70;84.00;;;;;;4738477;30;20041;-78
2023/10/13 15:26:45;;;;;;;5.15;1.83;;;20.60;84.10;;;;;;4738243;30;20040;-78
2023/10/13 15:29:12;;;;;;;3.20;1.83;;;20.70;84.20;;;;;;4711452;30;20047;-78
2023/10/13 15:31:41;;;;;;;3.53;1.70;;;20.60;84.20;;;;;;4752132;30;20126;-78
2023/10/13 15:34:12;;;;;;;3.95;2.15;;;20.60;84.40;;;;;;4718765;30;20053;-78
2023/10/13 15:36:40;;;;;;;4.15;1.80;;;20.40;84.50;;;;;;4738483;30;20045;-77
2023/10/13 15:39:10;;;;;;;3.80;1.70;;;20.40;84.70;;;;;;4736316;30;20060;-79
2023/10/13 15:41:38;;;;;;;3.97;1.73;;;20.30;84.80;;;;;;4736952;30;20053;-77
2023/10/13 15:44:09;;;;;;;3.13;1.77;;;20.20;84.90;;;;;;4718425;30;20467;-77
2023/10/13 15:46:36;;;;;;;2.42;1.63;;;20.20;85.10;;;;;;4724499;30;20063;-78
2023/10/13 15:49:05;;;;;;;3.10;1.63;;;20.10;86.00;;;;;;4721192;30;20582;-78
2023/10/13 15:51:33;;;;;;;2.83;1.75;;;20.00;85.50;;;;;;4748991;30;20052;-77
2023/10/13 15:54:00;;;;;;;4.70;1.80;;;19.90;85.60;;;;;;4750517;30;20134;-78
2023/10/13 15:56:32;;;;;;;2.50;1.42;;;19.90;85.80;;;;;;4721356;30;20048;-78
2023/10/13 15:59:00;;;;;;;3.13;1.60;;;19.90;86.00;;;;;;4733647;30;20116;-79
2023/10/13 16:01:27;;;;;;;3.28;1.60;;;19.80;86.10;;;;;;4734583;30;20039;-78
2023/10/13 16:03:53;;;;;;;2.88;1.90;;;19.80;86.20;;;;;;4734981;30;20052;-79
2023/10/13 16:06:19;;;;;;;3.70;1.50;;;19.80;86.30;;;;;;4734199;30;20032;-78
2023/10/13 16:08:45;;;;;;;2.40;1.50;;;19.70;86.40;;;;;;4719266;30;20373;-78
2023/10/13 16:11:13;;;;;;;2.78;1.60;;;19.70;86.40;;;;;;4749771;30;20067;-78
2023/10/13 16:13:46;;;;;;;3.38;1.90;;;19.70;86.40;;;;;;4749540;30;20097;-79
2023/10/13 16:16:17;;;;;;;4.03;1.67;;;19.70;86.30;;;;;;4734690;30;20048;-79
2023/10/13 16:18:44;;;;;;;2.70;1.77;;;19.80;86.30;;;;;;4734167;30;20052;-77
2023/10/13 16:21:12;;;;;;;3.53;1.95;;;19.70;86.10;;;;;;4734418;30;20052;-78
2023/10/13 16:23:39;;;;;;;4.38;1.95;;;19.80;86.00;;;;;;4737331;30;20056;-80
2023/10/13 16:26:07;;;;;;;2.90;1.63;;;19.80;86.50;;;;;;4720465;30;20041;-79
2023/10/13 16:28:36;;;;;;;3.33;1.70;;;19.80;85.90;;;;;;4720610;30;20037;-78
2023/10/13 16:31:09;;;;;;;3.38;1.88;;;19.80;85.80;;;;;;4749210;30;20496;-79
2023/10/13 16:33:35;;;;;;;3.78;1.90;;;19.80;85.80;;;;;;4754224;30;20075;-79
2023/10/13 16:36:05;;;;;;;3.72;2.00;;;19.80;85.70;;;;;;4742536;30;20064;-80
2023/10/13 16:38:31;;;;;;;3.20;1.88;;;19.80;85.60;;;;;;4744308;30;20072;-80
2023/10/13 16:40:57;;;;;;;3.15;1.85;;;19.80;85.50;;;;;;4741436;30;20060;-79
2023/10/13 16:43:23;;;;;;;4.80;2.08;;;19.90;85.40;;;;;;4743399;30;20044;-80
2023/10/13 16:45:49;;;;;;;4.00;2.08;;;19.90;85.30;;;;;;4757500;30;20045;-80